Time;durP1;ratioP1;P1;durP2;ratioP2;P2;SDS_P1;SDS_P2;PMS_P1;PMS_P2;Temp;Humidity;BMP_temperature;BMP_pressure;BME280_temperature;BME280_humidity;BME280_pressure;Samples;Min_cycle;Max_cycle;Signal;HPM_P1;HPM_P2
2021/11/28 00:00:28;;;;;;;;;;;;;;;;;;1021728;29;838;-30
2021/11/28 00:00:58;;;;;;;;;;;;;;;;;;1021321;29;967;-30
2021/11/28 00:01:29;;;;;;;;;;;;;;;;;;1021415;29;1016;-30
2021/11/28 00:01:59;;;;;;;;;;;;;;;;;;1021037;29;1072;-30
2021/11/28 00:02:30;;;;;;;;;;;;;;;;;;1021405;29;962;-30
2021/11/28 00:03:02;;;;;;;;;;;;;;;;;;1012059;28;4002;-30
2021/11/28 00:03:33;;;;;;;;;;;;;;;;;;1020779;29;1174;-30
2021/11/28 00:04:03;;;;;;;;;;;;;;;;;;1020964;29;1068;-30
2021/11/28 00:04:34;;;;;;;;;;;;;;;;;;1020839;29;957;-30
2021/11/28 00:05:05;;;;;;;;;;;;;;;;;;1020298;29;987;-30
2021/11/28 00:05:35;;;;;;;;;;;;;;;;;;1017533;29;870;-30
2021/11/28 00:06:13;;;;;;;;;;;;;;;;;;1017394;29;1073;-29
2021/11/28 00:11:19;;;;;;;;;;;;;;;;;;1020106;29;968;-30
2021/11/28 00:14:07;;;;;;;;;;;;;;;;;;1021353;29;887;-30
2021/11/28 00:14:38;;;;;;;;;;;;;;;;;;1021266;29;877;-30
2021/11/28 00:15:10;;;;;;;;;;;;;;;;;;1021572;29;1907;-30
2021/11/28 00:15:41;;;;;;;;;;;;;;;;;;1021174;29;901;-30
2021/11/28 00:16:11;;;;;;;;;;;;;;;;;;1015545;28;4044;-29
2021/11/28 00:16:43;;;;;;;;;;;;;;;;;;1025363;28;975;-35
2021/11/28 00:17:13;;;;;;;;;;;;;;;;;;1025303;28;901;-35
2021/11/28 00:17:44;;;;;;;;;;;;;;;;;;1025713;28;986;-35
2021/11/28 00:18:15;;;;;;;;;;;;;;;;;;1022037;28;958;-35
2021/11/28 00:18:46;;;;;;;;;;;;;;;;;;1021966;29;961;-35
2021/11/28 00:19:16;;;;;;;;;;;;;;;;;;1022055;29;1225;-35
2021/11/28 00:19:46;;;;;;;;;;;;;;;;;;1022013;28;1052;-34
2021/11/28 00:20:17;;;;;;;;;;;;;;;;;;1021815;29;771;-35
2021/11/28 00:20:48;;;;;;;;;;;;;;;;;;1022005;29;927;-34
2021/11/28 00:21:18;;;;;;;;;;;;;;;;;;1021363;28;1305;-34
2021/11/28 00:21:48;;;;;;;;;;;;;;;;;;1022136;29;980;-35
2021/11/28 00:22:19;;;;;;;;;;;;;;;;;;1021502;29;947;-34
2021/11/28 00:22:49;;;;;;;;;;;;;;;;;;1021934;28;831;-34
2021/11/28 00:23:20;;;;;;;;;;;;;;;;;;1022046;29;1590;-35
2021/11/28 00:23:50;;;;;;;;;;;;;;;;;;1021836;29;896;-34
2021/11/28 00:24:21;;;;;;;;;;;;;;;;;;1022089;29;1021;-35
2021/11/28 00:24:52;;;;;;;;;;;;;;;;;;1022177;28;843;-35
2021/11/28 00:25:22;;;;;;;;;;;;;;;;;;1021988;28;791;-35
2021/11/28 00:25:53;;;;;;;;;;;;;;;;;;1022020;29;914;-35
2021/11/28 00:26:23;;;;;;;;;;;;;;;;;;1022087;28;948;-35
2021/11/28 00:26:54;;;;;;;;;;;;;;;;;;1021887;29;1017;-35
2021/11/28 00:27:24;;;;;;;;;;;;;;;;;;1021681;29;968;-35
2021/11/28 00:27:55;;;;;;;;;;;;;;;;;;1021228;29;916;-34
2021/11/28 00:28:25;;;;;;;;;;;;;;;;;;1017854;29;1236;-35
2021/11/28 00:28:56;;;;;;;;;;;;;;;;;;1017655;29;985;-35
2021/11/28 00:29:27;;;;;;;;;;;;;;;;;;1021551;29;965;-35
2021/11/28 00:29:57;;;;;;;;;;;;;;;;;;1021352;29;1340;-35
2021/11/28 00:30:28;;;;;;;;;;;;;;;;;;1017847;29;924;-34
2021/11/28 00:30:58;;;;;;;;;;;;;;;;;;1017495;29;831;-35
2021/11/28 00:31:29;;;;;;;;;;;;;;;;;;1017941;29;1044;-35
2021/11/28 00:31:59;;;;;;;;;;;;;;;;;;1021444;29;1078;-34
2021/11/28 00:32:30;;;;;;;;;;;;;;;;;;1021637;29;964;-35
2021/11/28 00:33:00;;;;;;;;;;;;;;;;;;1021539;29;973;-35
2021/11/28 00:33:31;;;;;;;;;;;;;;;;;;1021521;29;1415;-35
2021/11/28 00:34:02;;;;;;;;;;;;;;;;;;1021710;29;1128;-35
2021/11/28 00:34:33;;;;;;;;;;;;;;;;;;1021671;29;1240;-35
2021/11/28 00:35:04;;;;;;;;;;;;;;;;;;1021315;29;1037;-35
2021/11/28 00:35:35;;;;;;;;;;;;;;;;;;1021957;29;1970;-35
2021/11/28 00:36:05;;;;;;;;;;;;;;;;;;1021761;29;966;-35
2021/11/28 00:36:36;;;;;;;;;;;;;;;;;;1022053;29;859;-35
2021/11/28 00:37:08;;;;;;;;;;;;;;;;;;1022014;28;906;-35
2021/11/28 00:37:38;;;;;;;;;;;;;;;;;;1021237;29;919;-35
2021/11/28 00:38:09;;;;;;;;;;;;;;;;;;1021892;29;948;-35
2021/11/28 00:38:39;;;;;;;;;;;;;;;;;;1017416;29;1162;-35
2021/11/28 00:39:10;;;;;;;;;;;;;;;;;;1017750;29;1486;-35
2021/11/28 00:39:42;;;;;;;;;;;;;;;;;;1021530;29;996;-35
2021/11/28 00:40:13;;;;;;;;;;;;;;;;;;1021976;28;858;-34
2021/11/28 00:40:44;;;;;;;;;;;;;;;;;;1021422;29;1373;-35
2021/11/28 00:41:14;;;;;;;;;;;;;;;;;;1017712;29;1261;-35
2021/11/28 00:41:44;;;;;;;;;;;;;;;;;;1017472;29;783;-35
2021/11/28 00:42:15;;;;;;;;;;;;;;;;;;1020978;29;1952;-35
2021/11/28 00:42:45;;;;;;;;;;;;;;;;;;1020147;28;1068;-35
2021/11/28 00:43:18;;;;;;;;;;;;;;;;;;1018011;29;1042;-35
2021/11/28 00:43:49;;;;;;;;;;;;;;;;;;1020311;29;953;-35
2021/11/28 00:44:19;;;;;;;;;;;;;;;;;;1021125;29;1074;-35
2021/11/28 00:44:50;;;;;;;;;;;;;;;;;;1021602;28;1564;-35
2021/11/28 00:45:21;;;;;;;;;;;;;;;;;;1025272;28;1175;-35
2021/11/28 00:45:51;;;;;;;;;;;;;;;;;;1025522;28;994;-33
2021/11/28 00:46:22;;;;;;;;;;;;;;;;;;1025319;28;953;-34
2021/11/28 00:46:52;;;;;;;;;;;;;;;;;;1022261;29;883;-35
2021/11/28 00:47:24;;;;;;;;;;;;;;;;;;1021250;29;1281;-35
2021/11/28 00:47:55;;;;;;;;;;;;;;;;;;1021315;29;1086;-35
2021/11/28 00:48:29;;;;;;;;;;;;;;;;;;1021685;29;1132;-35
2021/11/28 00:49:03;;;;;;;;;;;;;;;;;;1018202;29;1281;-35
2021/11/28 00:49:36;;;;;;;;;;;;;;;;;;1021607;29;937;-35
2021/11/28 00:50:47;;;;;;;;;;;;;;;;;;1018847;29;804;-35
2021/11/28 00:51:50;;;;;;;;;;;;;;;;;;1021804;29;932;-34
2021/11/28 00:52:21;;;;;;;;;;;;;;;;;;1017502;29;1263;-35
2021/11/28 00:52:51;;;;;;;;;;;;;;;;;;1017321;29;1067;-34
2021/11/28 00:53:22;;;;;;;;;;;;;;;;;;1017624;29;910;-35
2021/11/28 00:53:52;;;;;;;;;;;;;;;;;;1017927;29;851;-35
2021/11/28 00:54:24;;;;;;;;;;;;;;;;;;1017320;29;1125;-35
2021/11/28 00:54:55;;;;;;;;;;;;;;;;;;1017087;29;1290;-35
2021/11/28 00:55:26;;;;;;;;;;;;;;;;;;1017164;29;1914;-35
2021/11/28 00:55:56;;;;;;;;;;;;;;;;;;1017565;28;967;-35
2021/11/28 00:56:26;;;;;;;;;;;;;;;;;;1025572;28;915;-34
2021/11/28 00:56:57;;;;;;;;;;;;;;;;;;1021256;29;901;-34
2021/11/28 00:57:31;;;;;;;;;;;;;;;;;;1021707;29;1134;-35
2021/11/28 00:58:02;;;;;;;;;;;;;;;;;;1021039;29;1162;-35
2021/11/28 00:58:34;;;;;;;;;;;;;;;;;;1018421;29;1202;-35
2021/11/28 00:59:06;;;;;;;;;;;;;;;;;;1016955;29;1260;-34
2021/11/28 00:59:39;;;;;;;;;;;;;;;;;;1014359;29;1312;-35
2021/11/28 01:00:25;;;;;;;;;;;;;;;;;;1014140;29;1139;-35
2021/11/28 01:00:55;;;;;;;;;;;;;;;;;;1015858;29;953;-35
2021/11/28 01:01:28;;;;;;;;;;;;;;;;;;1013502;29;1246;-35
2021/11/28 01:02:00;;;;;;;;;;;;;;;;;;1013552;29;1273;-35
2021/11/28 01:02:30;;;;;;;;;;;;;;;;;;1013545;29;994;-34
2021/11/28 01:03:34;;;;;;;;;;;;;;;;;;1013528;29;1179;-34
2021/11/28 01:04:05;;;;;;;;;;;;;;;;;;1021267;29;955;-34
2021/11/28 01:04:37;;;;;;;;;;;;;;;;;;1021255;29;823;-35
2021/11/28 01:05:08;;;;;;;;;;;;;;;;;;1021723;29;847;-35
2021/11/28 01:05:38;;;;;;;;;;;;;;;;;;1017481;29;1280;-34
2021/11/28 01:06:10;;;;;;;;;;;;;;;;;;1017475;29;900;-34
2021/11/28 01:06:40;;;;;;;;;;;;;;;;;;1017588;29;1019;-35
2021/11/28 01:07:11;;;;;;;;;;;;;;;;;;1017468;29;923;-35
2021/11/28 01:07:41;;;;;;;;;;;;;;;;;;1017493;29;1353;-35
2021/11/28 01:08:12;;;;;;;;;;;;;;;;;;1017327;29;1355;-35
2021/11/28 01:08:42;;;;;;;;;;;;;;;;;;1017491;29;861;-34
2021/11/28 01:09:13;;;;;;;;;;;;;;;;;;1017555;29;966;-35
2021/11/28 01:09:44;;;;;;;;;;;;;;;;;;1017685;29;1335;-35
2021/11/28 01:10:15;;;;;;;;;;;;;;;;;;1017306;29;808;-35
2021/11/28 01:10:47;;;;;;;;;;;;;;;;;;1017551;29;953;-35
2021/11/28 01:11:17;;;;;;;;;;;;;;;;;;1017351;29;1456;-35
2021/11/28 01:11:48;;;;;;;;;;;;;;;;;;1017335;29;1272;-35
2021/11/28 01:12:19;;;;;;;;;;;;;;;;;;1017467;29;984;-34
2021/11/28 01:12:52;;;;;;;;;;;;;;;;;;1017367;29;1015;-34
2021/11/28 01:13:23;;;;;;;;;;;;;;;;;;1013916;29;862;-36
2021/11/28 01:13:54;;;;;;;;;;;;;;;;;;1017695;29;958;-34
2021/11/28 01:14:24;;;;;;;;;;;;;;;;;;1017302;29;1246;-33
2021/11/28 01:14:54;;;;;;;;;;;;;;;;;;1017479;29;874;-35
2021/11/28 01:15:25;;;;;;;;;;;;;;;;;;1017997;29;1919;-34
2021/11/28 01:15:56;;;;;;;;;;;;;;;;;;1017153;29;1289;-33
2021/11/28 01:16:26;;;;;;;;;;;;;;;;;;1017562;29;1159;-34
2021/11/28 01:16:57;;;;;;;;;;;;;;;;;;1017374;29;1017;-35
2021/11/28 01:17:28;;;;;;;;;;;;;;;;;;1013477;29;973;-35
2021/11/28 01:17:59;;;;;;;;;;;;;;;;;;1017473;29;1138;-35
2021/11/28 01:18:32;;;;;;;;;;;;;;;;;;1017179;29;1288;-34
2021/11/28 01:19:03;;;;;;;;;;;;;;;;;;1013546;29;1122;-35
2021/11/28 01:19:33;;;;;;;;;;;;;;;;;;1014226;29;1146;-34
2021/11/28 01:20:04;;;;;;;;;;;;;;;;;;1017410;29;1606;-35
2021/11/28 01:20:35;;;;;;;;;;;;;;;;;;1013883;29;1442;-34
2021/11/28 01:21:06;;;;;;;;;;;;;;;;;;1012781;29;1029;-33
2021/11/28 01:21:37;;;;;;;;;;;;;;;;;;1009209;29;1117;-34
2021/11/28 01:22:10;;;;;;;;;;;;;;;;;;1009494;29;1024;-35
2021/11/28 01:22:40;;;;;;;;;;;;;;;;;;1014027;29;933;-34
2021/11/28 01:23:11;;;;;;;;;;;;;;;;;;1020872;29;760;-35
2021/11/28 01:23:41;;;;;;;;;;;;;;;;;;1021385;29;933;-34
2021/11/28 01:24:15;;;;;;;;;;;;;;;;;;1021294;29;996;-34
2021/11/28 01:24:45;;;;;;;;;;;;;;;;;;1021393;29;926;-35
2021/11/28 01:25:19;;;;;;;;;;;;;;;;;;1017493;29;1218;-35
2021/11/28 01:25:50;;;;;;;;;;;;;;;;;;1017209;29;911;-33
2021/11/28 01:26:22;;;;;;;;;;;;;;;;;;1017420;29;1012;-35
2021/11/28 01:26:53;;;;;;;;;;;;;;;;;;1013903;29;925;-35
2021/11/28 01:27:28;;;;;;;;;;;;;;;;;;1013414;29;1285;-34
2021/11/28 01:27:58;;;;;;;;;;;;;;;;;;1013358;29;1151;-34
2021/11/28 01:28:29;;;;;;;;;;;;;;;;;;1013449;29;1624;-34
2021/11/28 01:29:00;;;;;;;;;;;;;;;;;;1013667;29;779;-35
2021/11/28 01:29:32;;;;;;;;;;;;;;;;;;1013849;29;1364;-35
2021/11/28 01:30:08;;;;;;;;;;;;;;;;;;1013585;29;998;-34
2021/11/28 01:30:39;;;;;;;;;;;;;;;;;;1005102;29;1247;-35
2021/11/28 01:31:10;;;;;;;;;;;;;;;;;;1010226;29;1167;-35
2021/11/28 01:31:41;;;;;;;;;;;;;;;;;;1012975;29;986;-34
2021/11/28 01:32:12;;;;;;;;;;;;;;;;;;1012774;29;1371;-34
2021/11/28 01:32:44;;;;;;;;;;;;;;;;;;1005903;29;1171;-34
2021/11/28 01:33:14;;;;;;;;;;;;;;;;;;1009341;29;1214;-36
2021/11/28 01:33:45;;;;;;;;;;;;;;;;;;1013568;29;1280;-35
2021/11/28 01:34:16;;;;;;;;;;;;;;;;;;1013740;29;1036;-34
2021/11/28 01:34:46;;;;;;;;;;;;;;;;;;1017535;29;807;-34
2021/11/28 01:35:17;;;;;;;;;;;;;;;;;;1017285;29;2009;-35
2021/11/28 01:35:48;;;;;;;;;;;;;;;;;;1017925;29;932;-34
2021/11/28 01:36:19;;;;;;;;;;;;;;;;;;1017535;29;1028;-34
2021/11/28 01:36:51;;;;;;;;;;;;;;;;;;1017753;29;1198;-34
2021/11/28 01:37:21;;;;;;;;;;;;;;;;;;1017089;29;871;-35
2021/11/28 01:37:53;;;;;;;;;;;;;;;;;;1017471;29;1214;-35
2021/11/28 01:38:24;;;;;;;;;;;;;;;;;;1013264;29;1313;-35
2021/11/28 01:38:56;;;;;;;;;;;;;;;;;;1017851;29;1398;-35
2021/11/28 01:39:26;;;;;;;;;;;;;;;;;;1017384;29;1421;-35
2021/11/28 01:39:57;;;;;;;;;;;;;;;;;;1021256;29;1150;-35
2021/11/28 01:40:28;;;;;;;;;;;;;;;;;;1017341;29;865;-34
2021/11/28 01:40:58;;;;;;;;;;;;;;;;;;1017536;29;1277;-34
2021/11/28 01:41:29;;;;;;;;;;;;;;;;;;1021234;29;926;-34
2021/11/28 01:41:59;;;;;;;;;;;;;;;;;;1017399;29;1143;-35
2021/11/28 01:42:39;;;;;;;;;;;;;;;;;;1017043;29;1243;-35
2021/11/28 01:43:14;;;;;;;;;;;;;;;;;;1021019;29;893;-35
2021/11/28 01:43:44;;;;;;;;;;;;;;;;;;1016923;29;1257;-35
2021/11/28 01:44:15;;;;;;;;;;;;;;;;;;1018883;29;968;-34
2021/11/28 01:44:45;;;;;;;;;;;;;;;;;;1017395;29;1462;-35
2021/11/28 01:45:18;;;;;;;;;;;;;;;;;;1017151;29;1290;-35
2021/11/28 01:45:49;;;;;;;;;;;;;;;;;;1021384;29;846;-35
2021/11/28 01:46:20;;;;;;;;;;;;;;;;;;1021679;28;1459;-34
2021/11/28 01:46:51;;;;;;;;;;;;;;;;;;1021266;29;890;-34
2021/11/28 01:47:21;;;;;;;;;;;;;;;;;;1017508;29;1154;-35
2021/11/28 01:47:53;;;;;;;;;;;;;;;;;;1013163;29;1253;-33
2021/11/28 01:48:24;;;;;;;;;;;;;;;;;;1013626;29;1163;-35
2021/11/28 01:48:55;;;;;;;;;;;;;;;;;;1013364;29;1358;-35
2021/11/28 01:49:29;;;;;;;;;;;;;;;;;;1010257;29;1343;-34
2021/11/28 01:49:59;;;;;;;;;;;;;;;;;;1009708;29;1162;-34
2021/11/28 01:50:33;;;;;;;;;;;;;;;;;;1010933;29;960;-34
2021/11/28 01:51:05;;;;;;;;;;;;;;;;;;1017734;29;795;-35
2021/11/28 01:51:36;;;;;;;;;;;;;;;;;;1017730;29;1241;-34
2021/11/28 01:52:07;;;;;;;;;;;;;;;;;;1017642;29;1312;-34
2021/11/28 01:52:37;;;;;;;;;;;;;;;;;;1016617;29;903;-35
2021/11/28 01:53:12;;;;;;;;;;;;;;;;;;1013460;29;972;-35
2021/11/28 01:53:43;;;;;;;;;;;;;;;;;;1012941;29;1409;-34
2021/11/28 01:54:14;;;;;;;;;;;;;;;;;;1013642;29;1330;-34
2021/11/28 01:54:44;;;;;;;;;;;;;;;;;;1017119;29;865;-34
2021/11/28 01:55:17;;;;;;;;;;;;;;;;;;1017377;29;1938;-34
2021/11/28 01:55:48;;;;;;;;;;;;;;;;;;1017485;29;1316;-35
2021/11/28 01:56:26;;;;;;;;;;;;;;;;;;1017367;29;1445;-34
2021/11/28 01:56:57;;;;;;;;;;;;;;;;;;1013466;29;1069;-34
2021/11/28 01:57:27;;;;;;;;;;;;;;;;;;1010497;29;1230;-35
2021/11/28 01:57:58;;;;;;;;;;;;;;;;;;1009868;29;1167;-34
2021/11/28 01:58:31;;;;;;;;;;;;;;;;;;1016933;29;1340;-34
2021/11/28 01:59:01;;;;;;;;;;;;;;;;;;1017610;29;1154;-35
2021/11/28 01:59:32;;;;;;;;;;;;;;;;;;1013687;29;1213;-34
2021/11/28 02:00:07;;;;;;;;;;;;;;;;;;1013597;29;1269;-34
2021/11/28 02:00:50;;;;;;;;;;;;;;;;;;1015367;29;665;-35
2021/11/28 02:01:21;;;;;;;;;;;;;;;;;;1019645;29;1152;-34
2021/11/28 02:01:52;;;;;;;;;;;;;;;;;;1023800;28;884;-34
2021/11/28 02:02:22;;;;;;;;;;;;;;;;;;1025172;28;934;-35
2021/11/28 02:02:57;;;;;;;;;;;;;;;;;;1021539;28;1261;-34
2021/11/28 02:03:27;;;;;;;;;;;;;;;;;;1020996;29;994;-35
2021/11/28 02:03:58;;;;;;;;;;;;;;;;;;1017272;29;831;-35
2021/11/28 02:04:29;;;;;;;;;;;;;;;;;;1017533;29;837;-35
2021/11/28 02:04:59;;;;;;;;;;;;;;;;;;1017140;29;1332;-35
2021/11/28 02:05:30;;;;;;;;;;;;;;;;;;1013302;29;1301;-34
2021/11/28 02:06:01;;;;;;;;;;;;;;;;;;1017388;29;1144;-34
2021/11/28 02:06:32;;;;;;;;;;;;;;;;;;1013362;29;1472;-34
2021/11/28 02:07:02;;;;;;;;;;;;;;;;;;1017563;29;1005;-35
2021/11/28 02:07:33;;;;;;;;;;;;;;;;;;1017100;29;1291;-34
2021/11/28 02:08:03;;;;;;;;;;;;;;;;;;1017035;29;1329;-34
2021/11/28 02:08:34;;;;;;;;;;;;;;;;;;1011447;29;1182;-35
2021/11/28 02:09:05;;;;;;;;;;;;;;;;;;1016789;29;1173;-32
2021/11/28 02:09:36;;;;;;;;;;;;;;;;;;1021210;28;835;-34
2021/11/28 02:10:07;;;;;;;;;;;;;;;;;;1025307;28;876;-34
2021/11/28 02:10:40;;;;;;;;;;;;;;;;;;1021022;29;1275;-34
2021/11/28 02:11:11;;;;;;;;;;;;;;;;;;1016978;29;1364;-34
2021/11/28 02:11:43;;;;;;;;;;;;;;;;;;1017081;29;1378;-34
2021/11/28 02:12:13;;;;;;;;;;;;;;;;;;1017435;29;1336;-34
2021/11/28 02:12:45;;;;;;;;;;;;;;;;;;1017434;29;1159;-34
2021/11/28 02:13:16;;;;;;;;;;;;;;;;;;1017271;29;1170;-34
2021/11/28 02:13:47;;;;;;;;;;;;;;;;;;1016797;29;848;-34
2021/11/28 02:14:17;;;;;;;;;;;;;;;;;;1013920;29;1134;-34
2021/11/28 02:14:55;;;;;;;;;;;;;;;;;;1009992;29;1290;-34
2021/11/28 02:15:26;;;;;;;;;;;;;;;;;;1008585;29;1922;-34
2021/11/28 02:15:57;;;;;;;;;;;;;;;;;;1009679;29;1341;-34
2021/11/28 02:16:27;;;;;;;;;;;;;;;;;;1010229;29;1293;-34
2021/11/28 02:16:58;;;;;;;;;;;;;;;;;;1016963;29;859;-34
2021/11/28 02:17:28;;;;;;;;;;;;;;;;;;1017625;29;983;-34
2021/11/28 02:17:59;;;;;;;;;;;;;;;;;;1016924;29;1257;-34
2021/11/28 02:18:29;;;;;;;;;;;;;;;;;;1017102;29;1178;-34
2021/11/28 02:19:00;;;;;;;;;;;;;;;;;;1013181;29;957;-34
2021/11/28 02:19:30;;;;;;;;;;;;;;;;;;1013171;29;962;-34
2021/11/28 02:20:02;;;;;;;;;;;;;;;;;;1017050;29;1127;-34
2021/11/28 02:20:40;;;;;;;;;;;;;;;;;;1017884;29;1394;-33
2021/11/28 02:21:11;;;;;;;;;;;;;;;;;;1016699;29;1230;-34
2021/11/28 02:21:41;;;;;;;;;;;;;;;;;;1013182;29;1142;-34
2021/11/28 02:22:12;;;;;;;;;;;;;;;;;;1010165;29;1194;-34
2021/11/28 02:22:43;;;;;;;;;;;;;;;;;;1016985;29;1344;-34
2021/11/28 02:23:14;;;;;;;;;;;;;;;;;;1017505;29;1174;-34
2021/11/28 02:23:45;;;;;;;;;;;;;;;;;;1016691;29;1166;-34
2021/11/28 02:24:15;;;;;;;;;;;;;;;;;;1013072;29;1430;-35
2021/11/28 02:24:46;;;;;;;;;;;;;;;;;;1009442;29;1167;-34
2021/11/28 02:25:16;;;;;;;;;;;;;;;;;;1013362;29;1362;-34
2021/11/28 02:25:47;;;;;;;;;;;;;;;;;;1017294;29;929;-34
2021/11/28 02:26:21;;;;;;;;;;;;;;;;;;1017304;29;1222;-34
2021/11/28 02:26:51;;;;;;;;;;;;;;;;;;1016843;29;1278;-34
2021/11/28 02:27:21;;;;;;;;;;;;;;;;;;1017301;29;991;-34
2021/11/28 02:27:53;;;;;;;;;;;;;;;;;;1017437;29;909;-34
2021/11/28 02:28:23;;;;;;;;;;;;;;;;;;1017095;29;1260;-34
2021/11/28 02:28:53;;;;;;;;;;;;;;;;;;1020875;29;1011;-34
2021/11/28 02:29:24;;;;;;;;;;;;;;;;;;1017216;29;1397;-34
2021/11/28 02:29:57;;;;;;;;;;;;;;;;;;1017209;29;937;-34
2021/11/28 02:30:32;;;;;;;;;;;;;;;;;;1016953;29;1365;-34
2021/11/28 02:31:02;;;;;;;;;;;;;;;;;;1018159;29;993;-34
2021/11/28 02:31:33;;;;;;;;;;;;;;;;;;1016873;29;1214;-34
2021/11/28 02:32:04;;;;;;;;;;;;;;;;;;1013623;29;2042;-34
2021/11/28 02:32:35;;;;;;;;;;;;;;;;;;1017420;29;943;-34
2021/11/28 02:33:06;;;;;;;;;;;;;;;;;;1017030;29;867;-34
2021/11/28 02:33:37;;;;;;;;;;;;;;;;;;1021228;29;904;-34
2021/11/28 02:34:08;;;;;;;;;;;;;;;;;;1020576;29;1330;-34
2021/11/28 02:34:39;;;;;;;;;;;;;;;;;;1021137;28;885;-34
2021/11/28 02:35:14;;;;;;;;;;;;;;;;;;1017022;29;1158;-34
2021/11/28 02:35:44;;;;;;;;;;;;;;;;;;1017460;29;1036;-34
2021/11/28 02:36:15;;;;;;;;;;;;;;;;;;1020533;29;982;-34
2021/11/28 02:36:49;;;;;;;;;;;;;;;;;;1020912;29;861;-34
2021/11/28 02:37:19;;;;;;;;;;;;;;;;;;1018551;28;985;-34
2021/11/28 02:37:50;;;;;;;;;;;;;;;;;;1021008;29;1595;-33
2021/11/28 02:38:21;;;;;;;;;;;;;;;;;;1021048;29;1520;-34
2021/11/28 02:38:51;;;;;;;;;;;;;;;;;;1020843;29;1270;-34
2021/11/28 02:39:22;;;;;;;;;;;;;;;;;;1017114;29;960;-34
2021/11/28 02:39:53;;;;;;;;;;;;;;;;;;1017019;29;1292;-34
2021/11/28 02:40:24;;;;;;;;;;;;;;;;;;1020912;29;1347;-34
2021/11/28 02:40:55;;;;;;;;;;;;;;;;;;1020666;29;1063;-34
2021/11/28 02:41:27;;;;;;;;;;;;;;;;;;1021426;28;2307;-35
2021/11/28 02:41:58;;;;;;;;;;;;;;;;;;1020929;29;1225;-34
2021/11/28 02:42:28;;;;;;;;;;;;;;;;;;1021002;29;1514;-34
2021/11/28 02:42:59;;;;;;;;;;;;;;;;;;1017286;29;1166;-35
2021/11/28 02:43:32;;;;;;;;;;;;;;;;;;1016836;29;1095;-34
2021/11/28 02:44:03;;;;;;;;;;;;;;;;;;1017278;29;1283;-34
2021/11/28 02:44:34;;;;;;;;;;;;;;;;;;1017820;29;1305;-34
2021/11/28 02:45:05;;;;;;;;;;;;;;;;;;1016654;29;1268;-34
2021/11/28 02:45:36;;;;;;;;;;;;;;;;;;1017315;29;1432;-34
2021/11/28 02:46:08;;;;;;;;;;;;;;;;;;1017381;29;912;-34
2021/11/28 02:46:39;;;;;;;;;;;;;;;;;;1021355;28;926;-34
2021/11/28 02:47:09;;;;;;;;;;;;;;;;;;1024839;28;961;-34
2021/11/28 02:47:40;;;;;;;;;;;;;;;;;;1021084;29;1480;-39
2021/11/28 02:48:12;;;;;;;;;;;;;;;;;;1020751;29;815;-34
2021/11/28 02:48:43;;;;;;;;;;;;;;;;;;1017255;29;916;-34
2021/11/28 02:49:15;;;;;;;;;;;;;;;;;;1016789;29;1022;-34
2021/11/28 02:49:46;;;;;;;;;;;;;;;;;;1021093;29;899;-34
2021/11/28 02:50:17;;;;;;;;;;;;;;;;;;1021162;29;1090;-34
2021/11/28 02:50:48;;;;;;;;;;;;;;;;;;1020743;29;1330;-34
2021/11/28 02:51:18;;;;;;;;;;;;;;;;;;1020988;29;797;-34
2021/11/28 02:51:49;;;;;;;;;;;;;;;;;;1021141;29;942;-34
2021/11/28 02:52:21;;;;;;;;;;;;;;;;;;1020716;29;912;-34
2021/11/28 02:52:53;;;;;;;;;;;;;;;;;;1021522;29;899;-34
2021/11/28 02:53:24;;;;;;;;;;;;;;;;;;1020866;29;1253;-35
2021/11/28 02:53:55;;;;;;;;;;;;;;;;;;1021109;29;854;-35
2021/11/28 02:54:25;;;;;;;;;;;;;;;;;;1016705;29;2168;-35
2021/11/28 02:54:56;;;;;;;;;;;;;;;;;;1017250;29;1132;-34
2021/11/28 02:55:28;;;;;;;;;;;;;;;;;;1016795;29;1918;-35
2021/11/28 02:56:03;;;;;;;;;;;;;;;;;;1013602;29;1272;-34
2021/11/28 02:56:39;;;;;;;;;;;;;;;;;;1013325;29;1425;-34
2021/11/28 02:57:10;;;;;;;;;;;;;;;;;;1012643;29;1641;-34
2021/11/28 02:57:40;;;;;;;;;;;;;;;;;;1010797;29;1014;-34
2021/11/28 02:58:11;;;;;;;;;;;;;;;;;;1013593;29;1278;-34
2021/11/28 02:58:42;;;;;;;;;;;;;;;;;;1012991;29;1254;-35
2021/11/28 02:59:12;;;;;;;;;;;;;;;;;;1013202;29;1152;-35
2021/11/28 02:59:44;;;;;;;;;;;;;;;;;;1012744;29;1451;-34
2021/11/28 03:00:15;;;;;;;;;;;;;;;;;;1013088;29;1313;-34
2021/11/28 03:00:49;;;;;;;;;;;;;;;;;;1009881;29;1435;-34
2021/11/28 03:01:21;;;;;;;;;;;;;;;;;;1012870;29;857;-34
2021/11/28 03:02:17;;;;;;;;;;;;;;;;;;1012644;29;1295;-34
2021/11/28 03:02:58;;;;;;;;;;;;;;;;;;1012959;29;1210;-34
2021/11/28 03:03:31;;;;;;;;;;;;;;;;;;1017107;29;1531;-34
2021/11/28 03:04:02;;;;;;;;;;;;;;;;;;1016872;29;1278;-34
2021/11/28 03:04:32;;;;;;;;;;;;;;;;;;1016794;29;914;-34
2021/11/28 03:05:03;;;;;;;;;;;;;;;;;;1017093;29;1122;-34
2021/11/28 03:05:34;;;;;;;;;;;;;;;;;;1013210;29;1182;-35
2021/11/28 03:06:04;;;;;;;;;;;;;;;;;;1016901;29;753;-34
2021/11/28 03:06:34;;;;;;;;;;;;;;;;;;1013217;29;1257;-35
2021/11/28 03:07:05;;;;;;;;;;;;;;;;;;1013062;29;1137;-34
2021/11/28 03:07:37;;;;;;;;;;;;;;;;;;1016997;29;1455;-34
2021/11/28 03:08:08;;;;;;;;;;;;;;;;;;1017388;29;956;-34
2021/11/28 03:08:39;;;;;;;;;;;;;;;;;;1016900;29;1242;-34
2021/11/28 03:09:10;;;;;;;;;;;;;;;;;;1016739;29;1364;-34
2021/11/28 03:09:40;;;;;;;;;;;;;;;;;;1017138;29;1438;-34
2021/11/28 03:10:29;;;;;;;;;;;;;;;;;;1016831;29;792;-34
2021/11/28 03:11:00;;;;;;;;;;;;;;;;;;1014279;29;966;-34
2021/11/28 03:11:30;;;;;;;;;;;;;;;;;;1012490;29;1296;-34
2021/11/28 03:12:01;;;;;;;;;;;;;;;;;;1012263;29;1444;-34
2021/11/28 03:12:31;;;;;;;;;;;;;;;;;;1012849;29;1112;-34
2021/11/28 03:13:04;;;;;;;;;;;;;;;;;;1021076;29;894;-34
2021/11/28 03:13:36;;;;;;;;;;;;;;;;;;1020584;29;1017;-34
2021/11/28 03:14:07;;;;;;;;;;;;;;;;;;1016897;29;1302;-35
2021/11/28 03:14:37;;;;;;;;;;;;;;;;;;1017044;29;1065;-34
2021/11/28 03:15:08;;;;;;;;;;;;;;;;;;1016836;29;1154;-34
2021/11/28 03:15:38;;;;;;;;;;;;;;;;;;1017068;29;1906;-34
2021/11/28 03:16:11;;;;;;;;;;;;;;;;;;1016907;29;909;-34
2021/11/28 03:16:41;;;;;;;;;;;;;;;;;;1016829;29;1163;-35
2021/11/28 03:17:13;;;;;;;;;;;;;;;;;;1016990;29;1221;-34
2021/11/28 03:17:44;;;;;;;;;;;;;;;;;;1016783;29;1342;-34
2021/11/28 03:18:19;;;;;;;;;;;;;;;;;;1017436;29;748;-34
2021/11/28 03:18:51;;;;;;;;;;;;;;;;;;1016866;29;1246;-34
2021/11/28 03:19:21;;;;;;;;;;;;;;;;;;1015939;29;850;-34
2021/11/28 03:19:52;;;;;;;;;;;;;;;;;;1013961;29;1359;-34
2021/11/28 03:20:22;;;;;;;;;;;;;;;;;;1016817;29;1308;-34
2021/11/28 03:20:54;;;;;;;;;;;;;;;;;;1012851;29;1269;-33
2021/11/28 03:21:25;;;;;;;;;;;;;;;;;;1013180;29;1174;-34
2021/11/28 03:21:56;;;;;;;;;;;;;;;;;;1016894;29;1081;-34
2021/11/28 03:22:26;;;;;;;;;;;;;;;;;;1016947;29;1159;-34
2021/11/28 03:22:57;;;;;;;;;;;;;;;;;;1021173;29;1317;-34
2021/11/28 03:23:29;;;;;;;;;;;;;;;;;;1020693;29;1041;-34
2021/11/28 03:24:01;;;;;;;;;;;;;;;;;;1020598;29;803;-34
2021/11/28 03:24:31;;;;;;;;;;;;;;;;;;1016858;29;1183;-34
2021/11/28 03:25:09;;;;;;;;;;;;;;;;;;1017254;29;958;-34
2021/11/28 03:25:40;;;;;;;;;;;;;;;;;;1017263;29;910;-34
2021/11/28 03:26:11;;;;;;;;;;;;;;;;;;1016834;29;1322;-34
2021/11/28 03:26:42;;;;;;;;;;;;;;;;;;1016753;29;901;-34
2021/11/28 03:27:13;;;;;;;;;;;;;;;;;;1016834;29;1428;-34
2021/11/28 03:27:44;;;;;;;;;;;;;;;;;;1016962;29;1143;-34
2021/11/28 03:28:16;;;;;;;;;;;;;;;;;;1016782;29;937;-34
2021/11/28 03:28:48;;;;;;;;;;;;;;;;;;1017315;29;859;-34
2021/11/28 03:29:23;;;;;;;;;;;;;;;;;;1020766;29;1568;-34
2021/11/28 03:30:13;;;;;;;;;;;;;;;;;;1021233;29;1035;-34
2021/11/28 03:31:02;;;;;;;;;;;;;;;;;;1019885;29;940;-34
2021/11/28 03:31:53;;;;;;;;;;;;;;;;;;1017703;29;928;-34
2021/11/28 03:32:39;;;;;;;;;;;;;;;;;;1017501;29;864;-34
2021/11/28 03:33:30;;;;;;;;;;;;;;;;;;1017008;29;1327;-34
2021/11/28 03:34:15;;;;;;;;;;;;;;;;;;1017069;29;1519;-34
2021/11/28 03:34:45;;;;;;;;;;;;;;;;;;1016646;29;1154;-34
2021/11/28 03:35:21;;;;;;;;;;;;;;;;;;1016660;29;1907;-34
2021/11/28 03:35:52;;;;;;;;;;;;;;;;;;1013044;29;1226;-34
2021/11/28 03:36:25;;;;;;;;;;;;;;;;;;1016298;29;997;-33
2021/11/28 03:36:58;;;;;;;;;;;;;;;;;;1017501;29;1234;-34
2021/11/28 03:37:30;;;;;;;;;;;;;;;;;;1020573;28;1157;-35
2021/11/28 03:38:03;;;;;;;;;;;;;;;;;;1016527;29;1312;-34
2021/11/28 03:38:34;;;;;;;;;;;;;;;;;;1017450;29;1232;-34
2021/11/28 03:39:07;;;;;;;;;;;;;;;;;;1021285;29;962;-34
2021/11/28 03:39:38;;;;;;;;;;;;;;;;;;1021123;28;891;-33
2021/11/28 03:40:09;;;;;;;;;;;;;;;;;;1024463;28;807;-34
2021/11/28 03:40:39;;;;;;;;;;;;;;;;;;1021117;29;1288;-34
2021/11/28 03:41:11;;;;;;;;;;;;;;;;;;1016830;29;1175;-35
2021/11/28 03:41:43;;;;;;;;;;;;;;;;;;1016519;29;941;-34
2021/11/28 03:42:13;;;;;;;;;;;;;;;;;;1017531;29;1575;-34
2021/11/28 03:42:49;;;;;;;;;;;;;;;;;;1021431;28;1652;-34
2021/11/28 03:43:20;;;;;;;;;;;;;;;;;;1020928;29;1316;-34
2021/11/28 03:43:51;;;;;;;;;;;;;;;;;;1020770;29;1369;-34
2021/11/28 03:44:22;;;;;;;;;;;;;;;;;;1016583;29;1209;-34
2021/11/28 03:45:06;;;;;;;;;;;;;;;;;;1014761;29;1256;-35
2021/11/28 03:45:38;;;;;;;;;;;;;;;;;;1015071;29;1532;-34
2021/11/28 03:46:12;;;;;;;;;;;;;;;;;;1015518;29;1379;-34
2021/11/28 03:46:43;;;;;;;;;;;;;;;;;;1012838;29;1408;-34
2021/11/28 03:47:14;;;;;;;;;;;;;;;;;;1013712;29;1170;-34
2021/11/28 03:47:46;;;;;;;;;;;;;;;;;;1012875;29;1085;-34
2021/11/28 03:48:17;;;;;;;;;;;;;;;;;;1013563;29;1222;-35
2021/11/28 03:48:51;;;;;;;;;;;;;;;;;;1017730;29;1657;-35
2021/11/28 03:49:26;;;;;;;;;;;;;;;;;;1021883;28;1475;-33
2021/11/28 03:49:56;;;;;;;;;;;;;;;;;;1024942;28;783;-35
2021/11/28 03:50:29;;;;;;;;;;;;;;;;;;1024452;28;967;-34
2021/11/28 03:51:00;;;;;;;;;;;;;;;;;;1020756;29;822;-35